createdAt,value
2019-04-22T00:02:29.633Z,94736.37
2019-04-22T00:06:03.557Z,94728.69
2019-04-22T00:09:11.183Z,94721.72
2019-04-22T00:12:27.956Z,94721.78
2019-04-22T00:15:30.968Z,94715.42
2019-04-22T00:18:56.299Z,94715.59
2019-04-22T00:21:55.131Z,94710.92
2019-04-22T00:25:07.960Z,94707.59
2019-04-22T00:28:14.645Z,94699.50
2019-04-22T00:31:27.124Z,94702.24
2019-04-22T00:34:37.189Z,94699.50
2019-04-22T00:37:53.338Z,94698.41
2019-04-22T00:40:59.726Z,94690.59
2019-04-22T00:44:15.281Z,94687.09
2019-04-22T00:47:23.448Z,94686.60
2019-04-22T00:50:31.245Z,94683.05
2019-04-22T00:56:48.148Z,94690.38
2019-04-22T00:59:57.277Z,94679.83
2019-04-22T01:03:16.034Z,94681.29
2019-04-22T01:09:31.296Z,94665.70
2019-04-22T01:12:39.993Z,94671.44
2019-04-22T01:15:47.524Z,94664.17
2019-04-22T01:18:55.223Z,94672.27
2019-04-22T01:22:11.888Z,94662.53
2019-04-22T01:25:15.718Z,94668.27
2019-04-22T01:28:18.980Z,94671.54
2019-04-22T01:31:19.130Z,94663.30
2019-04-22T01:34:36.111Z,94659.70
2019-04-22T01:37:52.472Z,94652.43
2019-04-22T01:41:07.219Z,94651.74
2019-04-22T01:44:21.581Z,94649.59
2019-04-22T01:50:33.842Z,94649.12
2019-04-22T01:53:50.265Z,94643.37
2019-04-22T01:56:55.770Z,94640.10
2019-04-22T01:59:58.735Z,94629.33
2019-04-22T02:03:31.154Z,94633.73
2019-04-22T02:06:34.876Z,94626.16
2019-04-22T02:09:42.743Z,94624.84
2019-04-22T02:12:55.436Z,94627.58
2019-04-22T02:16:06.957Z,94624.02
2019-04-22T02:19:17.313Z,94615.88
2019-04-22T02:22:29.004Z,94616.91
2019-04-22T02:25:32.584Z,94610.82
2019-04-22T02:28:39.865Z,94614.13
2019-04-22T02:31:58.975Z,94605.98
2019-04-22T02:35:07.590Z,94606.13
2019-04-22T02:38:20.000Z,94601.80
2019-04-22T02:41:30.973Z,94602.42
2019-04-22T02:44:40.185Z,94593.56
2019-04-22T02:47:34.268Z,94589.95
2019-04-22T02:50:54.886Z,94581.03
2019-04-22T02:54:27.454Z,94584.92
2019-04-22T03:03:45.879Z,94568.44
2019-04-22T03:09:54.845Z,94560.63
2019-04-22T03:13:01.163Z,94566.41
2019-04-22T03:16:29.434Z,94556.79
2019-04-22T03:19:26.470Z,94553.22
2019-04-22T03:22:20.930Z,94558.28
2019-04-22T03:38:08.547Z,94544.25
2019-04-22T03:41:39.356Z,94545.80
2019-04-22T03:44:44.452Z,94535.71
2019-04-22T03:47:45.776Z,94536.24
2019-04-22T03:50:42.409Z,94535.34
2019-04-22T04:00:26.604Z,94524.86
2019-04-22T04:03:28.820Z,94526.05
2019-04-22T04:06:54.752Z,94525.63
2019-04-22T04:09:50.045Z,94518.17
2019-04-22T04:16:03.140Z,94519.77
2019-04-22T04:22:41.471Z,94514.64
2019-04-22T04:25:40.878Z,94519.64
2019-04-22T04:29:17.109Z,94515.01
2019-04-22T04:32:07.232Z,94515.50
2019-04-22T04:38:11.570Z,94514.94
2019-04-22T04:41:34.264Z,94512.72
2019-04-22T04:44:48.032Z,94510.81
2019-04-22T04:50:58.630Z,94510.19
2019-04-22T04:57:14.891Z,94506.11
2019-04-22T05:03:46.669Z,94511.13
2019-04-22T05:06:53.710Z,94514.77
2019-04-22T05:09:47.993Z,94514.77
2019-04-22T05:19:15.696Z,94509.69
2019-04-22T05:22:21.103Z,94512.94
2019-04-22T05:25:31.699Z,94507.47
2019-04-22T05:28:42.268Z,94506.66
2019-04-22T05:31:59.743Z,94504.23
2019-04-22T05:34:59.760Z,94505.32
2019-04-22T05:38:17.171Z,94499.06
2019-04-22T05:41:23.328Z,94501.62
2019-04-22T05:44:29.404Z,94495.06
2019-04-22T05:47:41.837Z,94490.88
2019-04-22T05:50:54.034Z,94485.96
2019-04-22T05:54:01.393Z,94484.47
2019-04-22T05:57:12.431Z,94478.97
2019-04-22T06:00:25.837Z,94476.66
2019-04-22T06:03:32.525Z,94467.75
2019-04-22T06:06:28.775Z,94465.84
2019-04-22T06:09:49.260Z,94471.50
2019-04-22T06:12:55.049Z,94470.65
2019-04-22T06:16:04.719Z,94463.11
2019-04-22T06:28:48.208Z,94454.73
2019-04-22T06:32:17.884Z,94451.84
2019-04-22T06:35:15.379Z,94454.31
2019-04-22T06:38:33.054Z,94450.98
2019-04-22T06:41:31.590Z,94447.11
2019-04-22T06:44:29.591Z,94449.71
2019-04-22T06:47:51.216Z,94445.17
2019-04-22T06:54:03.325Z,94449.99
2019-04-22T06:57:06.232Z,94444.63
2019-04-22T07:00:22.479Z,94443.42
2019-04-22T07:06:41.862Z,94442.57
2019-04-22T07:09:57.453Z,94429.31
2019-04-22T07:12:53.998Z,94431.09
2019-04-22T07:16:05.221Z,94423.56
2019-04-22T07:19:20.320Z,94419.93
2019-04-22T07:22:30.650Z,94415.30
2019-04-22T07:25:40.803Z,94412.41
2019-04-22T07:28:43.854Z,94404.56
2019-04-22T07:32:01.609Z,94407.99
2019-04-22T07:35:08.549Z,94390.44
2019-04-22T07:38:17.579Z,94389.86
2019-04-22T07:41:24.839Z,94387.51
2019-04-22T07:44:53.249Z,94388.14
2019-04-22T07:47:46.580Z,94388.16
2019-04-22T07:51:07.763Z,94383.91
2019-04-22T07:54:01.842Z,94382.38
2019-04-22T08:00:23.091Z,94379.99
2019-04-22T08:03:42.123Z,94371.72
2019-04-22T08:06:46.390Z,94370.45
2019-04-22T08:10:00.129Z,94373.82
2019-04-22T08:12:59.315Z,94366.55
2019-04-22T08:16:10.353Z,94364.74
2019-04-22T08:19:20.373Z,94360.26
2019-04-22T08:22:27.261Z,94364.21
2019-04-22T08:25:45.763Z,94357.92
2019-04-22T08:28:51.768Z,94350.72
2019-04-22T08:32:01.213Z,94352.62
2019-04-22T08:35:18.715Z,94342.52
2019-04-22T08:47:48.212Z,94335.31
2019-04-22T08:51:02.728Z,94341.24
2019-04-22T08:54:11.878Z,94334.21
2019-04-22T08:57:32.550Z,94333.14
2019-04-22T09:00:41.411Z,94325.69
2019-04-22T09:03:48.736Z,94325.87
2019-04-22T09:10:02.171Z,94323.89
2019-04-22T09:13:12.001Z,94316.31
2019-04-22T09:16:26.483Z,94320.30
2019-04-22T09:19:32.277Z,94312.27
2019-04-22T09:22:45.414Z,94310.30
2019-04-22T09:25:48.613Z,94305.48
2019-04-22T09:32:15.355Z,94289.22
2019-04-22T09:35:18.687Z,94288.25
2019-04-22T09:38:45.442Z,94276.34
2019-04-22T09:41:40.143Z,94283.05
2019-04-22T09:44:55.528Z,94277.25
2019-04-22T09:48:00.913Z,94271.86
2019-04-22T09:51:05.830Z,94276.17
2019-04-22T09:54:23.004Z,94271.55
2019-04-22T09:57:24.665Z,94267.17
2019-04-22T10:00:42.998Z,94259.43
2019-04-22T10:03:56.286Z,94253.00
2019-04-22T10:06:54.683Z,94253.97
2019-04-22T10:10:17.097Z,94252.50
2019-04-22T10:13:18.949Z,94247.76
2019-04-22T10:16:31.162Z,94241.38
2019-04-22T10:19:43.940Z,94238.21
2019-04-22T10:23:11.209Z,94236.30
2019-04-22T10:26:02.524Z,94226.58
2019-04-22T10:29:14.029Z,94225.22
2019-04-22T10:32:23.180Z,94220.36
2019-04-22T10:35:14.155Z,94217.78
2019-04-22T10:38:16.661Z,94209.87
2019-04-22T10:41:24.174Z,94211.72
2019-04-22T10:44:33.237Z,94198.16
2019-04-22T10:47:42.262Z,94195.51
2019-04-22T10:50:50.647Z,94177.70
2019-04-22T10:54:01.697Z,94174.56
2019-04-22T10:57:10.860Z,94173.13
2019-04-22T11:00:19.787Z,94171.45
2019-04-22T11:03:28.368Z,94170.00
2019-04-22T11:06:42.280Z,94165.80
2019-04-22T11:09:54.878Z,94159.67
2019-04-22T11:13:26.106Z,94151.86
2019-04-22T11:16:53.176Z,94140.80
2019-04-22T11:20:01.925Z,94137.06
2019-04-22T11:23:10.857Z,94134.03
2019-04-22T11:26:19.898Z,94132.16
2019-04-22T11:29:28.025Z,94125.15
2019-04-22T11:32:40.438Z,94129.27
2019-04-22T11:35:49.998Z,94122.86
2019-04-22T11:39:01.952Z,94109.58
2019-04-22T11:42:07.897Z,94114.81
2019-04-22T11:45:17.552Z,94099.04
2019-04-22T11:48:27.019Z,94101.68
2019-04-22T11:51:36.016Z,94096.84
2019-04-22T11:54:43.933Z,94092.52
2019-04-22T11:57:52.091Z,94084.66
2019-04-22T12:01:01.156Z,94086.69
2019-04-22T12:04:09.712Z,94086.86
2019-04-22T12:07:21.303Z,94090.23
2019-04-22T12:10:36.639Z,94074.70
2019-04-22T12:13:39.959Z,94076.72
2019-04-22T12:16:47.794Z,94066.49
2019-04-22T12:19:55.827Z,94065.59
2019-04-22T12:23:04.995Z,94064.41
2019-04-22T12:26:16.854Z,94050.55
2019-04-22T12:29:22.998Z,94044.42
2019-04-22T12:32:31.631Z,94045.02
2019-04-22T12:35:39.701Z,94034.05
2019-04-22T12:38:49.291Z,94025.52
2019-04-22T12:41:58.360Z,94030.80
2019-04-22T12:45:08.252Z,94024.17
2019-04-22T12:48:19.005Z,94015.97
2019-04-22T12:51:27.241Z,94017.58
2019-04-22T12:54:35.234Z,94005.73
2019-04-22T12:57:42.872Z,94007.69
2019-04-22T13:00:52.758Z,93992.26
2019-04-22T13:04:05.781Z,93990.84
2019-04-22T13:07:09.775Z,93976.20
2019-04-22T13:10:17.978Z,93981.84
2019-04-22T13:13:27.066Z,93969.03
2019-04-22T13:16:36.975Z,93965.27
2019-04-22T13:19:44.557Z,93957.86
2019-04-22T13:22:52.790Z,93953.70
2019-04-22T13:26:00.954Z,93950.82
2019-04-22T13:29:09.042Z,93947.78
2019-04-22T13:32:18.644Z,93951.09
2019-04-22T13:35:27.918Z,93950.05
2019-04-22T13:38:38.446Z,93923.13
2019-04-22T13:44:58.035Z,93933.36
2019-04-22T13:48:28.133Z,93924.91
2019-04-22T13:51:49.152Z,93935.51
2019-04-22T13:53:53.454Z,93935.28
2019-04-22T13:54:53.408Z,93930.63
2019-04-22T13:57:53.389Z,93921.00
2019-04-22T14:00:44.655Z,93917.31
2019-04-22T14:04:00.790Z,93914.88
2019-04-22T14:07:08.710Z,93908.45
2019-04-22T14:10:18.527Z,93907.61
2019-04-22T14:13:26.293Z,93890.62
2019-04-22T14:16:35.259Z,93895.27
2019-04-22T14:19:44.799Z,93891.58
2019-04-22T14:22:52.766Z,93880.91
2019-04-22T14:26:01.310Z,93884.88
2019-04-22T14:29:08.860Z,93889.47
2019-04-22T14:32:21.183Z,93874.18
2019-04-22T14:35:27.216Z,93875.39
2019-04-22T14:38:36.632Z,93878.63
2019-04-22T14:42:02.650Z,93872.88
2019-04-22T14:45:24.731Z,93862.60
2019-04-22T14:48:31.584Z,93866.72
2019-04-22T14:51:32.855Z,93864.72
2019-04-22T14:54:37.614Z,93853.20
2019-04-22T14:57:33.770Z,93852.46
2019-04-22T15:00:42.370Z,93850.69
2019-04-22T15:03:50.405Z,93847.34
2019-04-22T15:06:59.004Z,93841.67
2019-04-22T15:10:08.333Z,93846.06
2019-04-22T15:13:17.776Z,93836.05
2019-04-22T15:17:03.013Z,93829.34
2019-04-22T15:20:41.543Z,93833.39
2019-04-22T15:23:50.859Z,93826.19
2019-04-22T15:26:59.356Z,93834.55
2019-04-22T15:30:09.605Z,93822.31
2019-04-22T15:33:17.372Z,93820.55
2019-04-22T15:36:26.140Z,93820.40
2019-04-22T15:39:33.994Z,93812.47
2019-04-22T15:42:43.456Z,93810.17
2019-04-22T15:45:50.915Z,93803.23
2019-04-22T15:48:59.938Z,93797.87
2019-04-22T15:52:08.084Z,93801.09
2019-04-22T15:55:16.531Z,93797.51
2019-04-22T15:58:24.004Z,93793.12
2019-04-22T16:01:35.606Z,93788.41
2019-04-22T16:04:41.307Z,93787.31
2019-04-22T16:07:50.639Z,93787.25
2019-04-22T16:10:59.888Z,93797.70
2019-04-22T16:14:08.667Z,93797.14
2019-04-22T16:17:19.352Z,93793.37
2019-04-22T16:20:28.050Z,93789.63
2019-04-22T16:24:14.083Z,93793.02
2019-04-22T16:27:24.702Z,93793.83
2019-04-22T16:30:33.180Z,93790.40
2019-04-22T16:33:43.765Z,93791.16
2019-04-22T16:36:52.739Z,93784.83
2019-04-22T16:40:03.046Z,93792.34
2019-04-22T16:43:11.957Z,93788.94
2019-04-22T16:46:21.397Z,93784.64
2019-04-22T16:49:31.894Z,93792.30
2019-04-22T16:52:39.988Z,93790.44
2019-04-22T16:55:48.901Z,93782.65
2019-04-22T16:58:56.913Z,93788.41
2019-04-22T17:02:45.230Z,93785.62
2019-04-22T17:06:09.833Z,93778.82
2019-04-22T17:09:17.857Z,93780.80
2019-04-22T17:12:38.638Z,93783.23
2019-04-22T17:15:35.609Z,93775.27
2019-04-22T17:18:46.784Z,93775.76
2019-04-22T17:21:53.613Z,93770.35
2019-04-22T17:25:02.665Z,93774.08
2019-04-22T17:28:10.941Z,93775.38
2019-04-22T17:31:18.671Z,93776.42
2019-04-22T17:34:27.639Z,93781.39
2019-04-22T17:37:37.771Z,93783.75
2019-04-22T17:41:00.994Z,93782.36
2019-04-22T17:44:28.641Z,93773.58
2019-04-22T17:47:38.397Z,93771.84
2019-04-22T17:50:59.951Z,93771.59
2019-04-22T17:54:02.646Z,93766.66
2019-04-22T17:57:09.516Z,93778.57
2019-04-22T18:00:21.809Z,93770.51
2019-04-22T18:03:26.755Z,93766.06
2019-04-22T18:06:58.244Z,93767.73
2019-04-22T18:10:23.029Z,93757.30
2019-04-22T18:13:15.791Z,93758.52
2019-04-22T18:16:17.810Z,93756.36
2019-04-22T18:19:26.198Z,93752.20
2019-04-22T18:22:25.740Z,93751.03
2019-04-22T18:25:46.780Z,93752.19
2019-04-22T18:28:57.279Z,93754.19
2019-04-22T18:31:54.509Z,93748.95
2019-04-22T18:35:11.877Z,93753.31
2019-04-22T18:38:33.366Z,93751.94
2019-04-22T18:41:27.361Z,93759.69
2019-04-22T18:44:43.215Z,93759.16
2019-04-22T18:47:46.563Z,93767.16
2019-04-22T18:51:13.341Z,93764.07
2019-04-22T18:54:43.863Z,93763.81
2019-04-22T18:58:18.754Z,93756.92
2019-04-22T19:01:13.676Z,93758.14
2019-04-22T19:04:27.415Z,93756.39
2019-04-22T19:07:59.050Z,93764.41
2019-04-22T19:14:10.720Z,93761.02
2019-04-22T19:20:38.028Z,93760.65
2019-04-22T19:23:45.239Z,93763.18
2019-04-22T19:30:04.334Z,93762.03
2019-04-22T19:33:11.225Z,93755.11
2019-04-22T19:36:22.711Z,93753.44
2019-04-22T19:39:28.797Z,93754.20
2019-04-22T19:42:45.003Z,93750.17
2019-04-22T19:45:49.780Z,93756.03
2019-04-22T19:49:05.394Z,93761.16
2019-04-22T19:55:23.494Z,93742.45
2019-04-22T19:58:25.917Z,93736.53
2019-04-22T20:01:56.878Z,93735.00
2019-04-22T20:05:20.341Z,93724.48
2019-04-22T20:08:25.168Z,93727.81
2019-04-22T20:11:34.073Z,93728.61
2019-04-22T20:14:46.354Z,93713.90
2019-04-22T20:18:15.225Z,93716.80
2019-04-22T20:21:04.474Z,93711.83
2019-04-22T20:24:05.450Z,93708.80
2019-04-22T20:27:23.758Z,93711.67
2019-04-22T20:30:34.843Z,93707.09
2019-04-22T20:33:50.126Z,93701.39
2019-04-22T20:40:08.682Z,93694.38
2019-04-22T20:43:17.644Z,93691.16
2019-04-22T20:46:20.306Z,93688.48
2019-04-22T20:49:35.539Z,93684.46
2019-04-22T20:52:50.364Z,93680.29
2019-04-22T20:55:52.477Z,93678.77
2019-04-22T20:59:01.975Z,93677.45
2019-04-22T21:02:07.939Z,93675.16
2019-04-22T21:05:14.344Z,93671.95
2019-04-22T21:08:30.554Z,93670.42
2019-04-22T21:11:33.974Z,93671.76
2019-04-22T21:14:46.114Z,93669.13
2019-04-22T21:17:57.976Z,93667.22
2019-04-22T21:21:08.539Z,93659.77
2019-04-22T21:24:09.355Z,93656.73
2019-04-22T21:27:28.258Z,93651.96
2019-04-22T21:30:38.857Z,93650.83
2019-04-22T21:33:46.910Z,93648.53
2019-04-22T21:37:05.719Z,93647.18
2019-04-22T21:40:00.379Z,93643.58
2019-04-22T21:43:18.483Z,93634.05
2019-04-22T21:46:23.182Z,93639.97
2019-04-22T21:49:35.472Z,93635.77
2019-04-22T21:52:40.716Z,93636.33
2019-04-22T21:56:10.149Z,93630.63
2019-04-22T21:59:10.696Z,93628.53
2019-04-22T22:02:25.159Z,93624.51
2019-04-22T22:05:26.544Z,93619.17
2019-04-22T22:08:38.725Z,93621.66
2019-04-22T22:11:51.135Z,93608.31
2019-04-22T22:14:55.762Z,93611.16
2019-04-22T22:18:07.503Z,93608.87
2019-04-22T22:21:33.344Z,93605.64
2019-04-22T22:24:32.844Z,93601.63
2019-04-22T22:27:35.436Z,93598.77
2019-04-22T22:33:51.434Z,93594.95
2019-04-22T22:36:58.855Z,93590.16
2019-04-22T22:40:00.989Z,93592.84
2019-04-22T22:43:14.493Z,93594.72
2019-04-22T22:46:26.950Z,93583.69
2019-04-22T22:49:50.169Z,93579.07
2019-04-22T22:53:02.383Z,93581.56
2019-04-22T22:56:02.210Z,93578.13
2019-04-22T22:59:09.414Z,93577.72
2019-04-22T23:02:15.672Z,93573.75
2019-04-22T23:05:43.604Z,93570.13
2019-04-22T23:08:38.266Z,93570.95
2019-04-22T23:12:07.700Z,93564.29
2019-04-22T23:14:59.307Z,93560.75
2019-04-22T23:17:48.010Z,93562.54
2019-04-22T23:20:57.265Z,93549.03
2019-04-22T23:24:41.403Z,93546.34
2019-04-22T23:27:39.009Z,93546.56
2019-04-22T23:30:56.757Z,93541.95
2019-04-22T23:34:15.750Z,93533.20
2019-04-22T23:37:25.475Z,93530.48
2019-04-22T23:40:42.900Z,93527.78
2019-04-22T23:43:56.315Z,93526.95
2019-04-22T23:47:02.033Z,93522.17
2019-04-22T23:50:14.165Z,93517.73
2019-04-22T23:53:43.450Z,93511.12
2019-04-22T23:56:34.841Z,93510.84
2019-04-22T23:59:49.506Z,93510.77
